sensor_id;sensor_type;location;lat;lon;timestamp;P1;durP1;ratioP1;P2;durP2;ratioP2
13672;SDS011;6909;52.202;9.876;2023-06-19T00:01:56;2.17;;;1.98;;
13672;SDS011;6909;52.202;9.876;2023-06-19T00:04:24;2.38;;;1.92;;
13672;SDS011;6909;52.202;9.876;2023-06-19T00:06:51;2.47;;;1.85;;
13672;SDS011;6909;52.202;9.876;2023-06-19T00:09:18;3.08;;;2.00;;
13672;SDS011;6909;52.202;9.876;2023-06-19T00:11:44;3.20;;;1.90;;
13672;SDS011;6909;52.202;9.876;2023-06-19T00:14:11;2.70;;;2.00;;
13672;SDS011;6909;52.202;9.876;2023-06-19T00:16:38;2.38;;;1.70;;
13672;SDS011;6909;52.202;9.876;2023-06-19T00:19:05;2.65;;;1.80;;
13672;SDS011;6909;52.202;9.876;2023-06-19T00:21:33;2.60;;;2.35;;
13672;SDS011;6909;52.202;9.876;2023-06-19T00:23:59;2.05;;;1.88;;
13672;SDS011;6909;52.202;9.876;2023-06-19T00:26:27;2.40;;;2.00;;
13672;SDS011;6909;52.202;9.876;2023-06-19T00:28:53;3.22;;;2.13;;
13672;SDS011;6909;52.202;9.876;2023-06-19T00:31:20;2.28;;;1.92;;
13672;SDS011;6909;52.202;9.876;2023-06-19T00:33:46;1.90;;;1.73;;
13672;SDS011;6909;52.202;9.876;2023-06-19T00:36:14;2.10;;;1.90;;
13672;SDS011;6909;52.202;9.876;2023-06-19T00:38:46;2.22;;;2.03;;
13672;SDS011;6909;52.202;9.876;2023-06-19T00:41:13;4.00;;;2.08;;
13672;SDS011;6909;52.202;9.876;2023-06-19T00:43:41;1.77;;;1.65;;
13672;SDS011;6909;52.202;9.876;2023-06-19T00:46:08;2.40;;;1.95;;
13672;SDS011;6909;52.202;9.876;2023-06-19T00:48:35;2.95;;;2.08;;
13672;SDS011;6909;52.202;9.876;2023-06-19T00:51:02;3.33;;;2.00;;
13672;SDS011;6909;52.202;9.876;2023-06-19T00:53:29;2.33;;;2.10;;
13672;SDS011;6909;52.202;9.876;2023-06-19T00:55:59;4.00;;;2.38;;
13672;SDS011;6909;52.202;9.876;2023-06-19T00:58:27;2.47;;;2.08;;
13672;SDS011;6909;52.202;9.876;2023-06-19T01:00:55;2.28;;;2.08;;
13672;SDS011;6909;52.202;9.876;2023-06-19T01:03:22;2.35;;;2.15;;
13672;SDS011;6909;52.202;9.876;2023-06-19T01:05:51;3.28;;;2.03;;
13672;SDS011;6909;52.202;9.876;2023-06-19T01:08:22;2.40;;;1.92;;
13672;SDS011;6909;52.202;9.876;2023-06-19T01:11:04;2.35;;;1.58;;
13672;SDS011;6909;52.202;9.876;2023-06-19T01:13:34;2.53;;;2.03;;
13672;SDS011;6909;52.202;9.876;2023-06-19T01:16:06;2.42;;;2.00;;
13672;SDS011;6909;52.202;9.876;2023-06-19T01:18:33;2.28;;;2.08;;
13672;SDS011;6909;52.202;9.876;2023-06-19T01:21:08;2.22;;;1.98;;
13672;SDS011;6909;52.202;9.876;2023-06-19T01:23:40;2.08;;;1.80;;
13672;SDS011;6909;52.202;9.876;2023-06-19T01:26:07;2.55;;;2.30;;
13672;SDS011;6909;52.202;9.876;2023-06-19T01:28:34;2.33;;;2.00;;
13672;SDS011;6909;52.202;9.876;2023-06-19T01:31:02;2.60;;;2.13;;
13672;SDS011;6909;52.202;9.876;2023-06-19T01:33:32;2.58;;;2.17;;
13672;SDS011;6909;52.202;9.876;2023-06-19T01:36:01;2.05;;;1.85;;
13672;SDS011;6909;52.202;9.876;2023-06-19T01:38:29;2.70;;;2.13;;
13672;SDS011;6909;52.202;9.876;2023-06-19T01:40:59;2.40;;;1.90;;
13672;SDS011;6909;52.202;9.876;2023-06-19T01:43:27;2.63;;;2.38;;
13672;SDS011;6909;52.202;9.876;2023-06-19T01:45:56;2.38;;;2.03;;
13672;SDS011;6909;52.202;9.876;2023-06-19T01:48:24;3.47;;;2.85;;
13672;SDS011;6909;52.202;9.876;2023-06-19T01:50:51;2.03;;;1.90;;
13672;SDS011;6909;52.202;9.876;2023-06-19T01:53:17;1.65;;;1.48;;
13672;SDS011;6909;52.202;9.876;2023-06-19T01:55:44;2.10;;;1.90;;
13672;SDS011;6909;52.202;9.876;2023-06-19T01:58:13;2.13;;;1.73;;
13672;SDS011;6909;52.202;9.876;2023-06-19T02:00:39;2.33;;;1.75;;
13672;SDS011;6909;52.202;9.876;2023-06-19T02:03:06;2.47;;;2.15;;
13672;SDS011;6909;52.202;9.876;2023-06-19T02:05:33;2.20;;;1.85;;
13672;SDS011;6909;52.202;9.876;2023-06-19T02:08:04;2.38;;;1.80;;
13672;SDS011;6909;52.202;9.876;2023-06-19T02:10:31;2.20;;;2.00;;
13672;SDS011;6909;52.202;9.876;2023-06-19T02:12:57;2.70;;;2.20;;
13672;SDS011;6909;52.202;9.876;2023-06-19T02:15:25;2.22;;;1.85;;
13672;SDS011;6909;52.202;9.876;2023-06-19T02:17:53;2.17;;;1.67;;
13672;SDS011;6909;52.202;9.876;2023-06-19T02:20:21;3.25;;;2.13;;
13672;SDS011;6909;52.202;9.876;2023-06-19T02:22:49;2.42;;;2.22;;
13672;SDS011;6909;52.202;9.876;2023-06-19T02:25:16;3.28;;;2.25;;
13672;SDS011;6909;52.202;9.876;2023-06-19T02:27:43;2.85;;;2.55;;
13672;SDS011;6909;52.202;9.876;2023-06-19T02:30:10;1.83;;;1.65;;
13672;SDS011;6909;52.202;9.876;2023-06-19T02:32:38;1.60;;;1.42;;
13672;SDS011;6909;52.202;9.876;2023-06-19T02:35:06;2.25;;;1.85;;
13672;SDS011;6909;52.202;9.876;2023-06-19T02:37:34;1.80;;;1.57;;
13672;SDS011;6909;52.202;9.876;2023-06-19T02:40:02;2.67;;;2.00;;
13672;SDS011;6909;52.202;9.876;2023-06-19T02:42:30;3.20;;;2.33;;
13672;SDS011;6909;52.202;9.876;2023-06-19T02:44:56;2.22;;;2.03;;
13672;SDS011;6909;52.202;9.876;2023-06-19T02:47:28;1.98;;;1.80;;
13672;SDS011;6909;52.202;9.876;2023-06-19T02:49:56;2.20;;;2.00;;
13672;SDS011;6909;52.202;9.876;2023-06-19T02:52:23;2.00;;;1.80;;
13672;SDS011;6909;52.202;9.876;2023-06-19T02:54:50;2.13;;;1.92;;
13672;SDS011;6909;52.202;9.876;2023-06-19T02:57:16;1.70;;;1.35;;
13672;SDS011;6909;52.202;9.876;2023-06-19T02:59:43;1.83;;;1.70;;
13672;SDS011;6909;52.202;9.876;2023-06-19T03:02:10;1.75;;;1.60;;
13672;SDS011;6909;52.202;9.876;2023-06-19T03:04:37;2.47;;;2.08;;
13672;SDS011;6909;52.202;9.876;2023-06-19T03:07:05;2.05;;;1.85;;
13672;SDS011;6909;52.202;9.876;2023-06-19T03:09:32;2.05;;;1.77;;
13672;SDS011;6909;52.202;9.876;2023-06-19T03:11:58;2.88;;;2.05;;
13672;SDS011;6909;52.202;9.876;2023-06-19T03:14:25;2.28;;;1.80;;
13672;SDS011;6909;52.202;9.876;2023-06-19T03:16:52;2.40;;;2.17;;
13672;SDS011;6909;52.202;9.876;2023-06-19T03:19:18;2.22;;;1.80;;
13672;SDS011;6909;52.202;9.876;2023-06-19T03:21:45;1.85;;;1.73;;
13672;SDS011;6909;52.202;9.876;2023-06-19T03:24:13;2.38;;;2.17;;
13672;SDS011;6909;52.202;9.876;2023-06-19T03:26:40;2.10;;;1.90;;
13672;SDS011;6909;52.202;9.876;2023-06-19T03:29:06;2.25;;;2.05;;
13672;SDS011;6909;52.202;9.876;2023-06-19T03:31:33;3.75;;;2.35;;
13672;SDS011;6909;52.202;9.876;2023-06-19T03:34:00;2.55;;;2.03;;
13672;SDS011;6909;52.202;9.876;2023-06-19T03:36:26;2.60;;;2.22;;
13672;SDS011;6909;52.202;9.876;2023-06-19T03:38:53;1.77;;;1.67;;
13672;SDS011;6909;52.202;9.876;2023-06-19T03:41:21;2.30;;;2.10;;
13672;SDS011;6909;52.202;9.876;2023-06-19T03:43:48;2.53;;;1.85;;
13672;SDS011;6909;52.202;9.876;2023-06-19T03:46:15;2.55;;;1.90;;
13672;SDS011;6909;52.202;9.876;2023-06-19T03:48:41;2.10;;;1.90;;
13672;SDS011;6909;52.202;9.876;2023-06-19T03:51:08;1.85;;;1.75;;
13672;SDS011;6909;52.202;9.876;2023-06-19T03:53:35;3.42;;;2.50;;
13672;SDS011;6909;52.202;9.876;2023-06-19T03:56:01;2.38;;;2.00;;
13672;SDS011;6909;52.202;9.876;2023-06-19T03:58:29;2.55;;;2.25;;
13672;SDS011;6909;52.202;9.876;2023-06-19T04:00:56;2.35;;;2.15;;
13672;SDS011;6909;52.202;9.876;2023-06-19T04:03:23;3.90;;;2.78;;
13672;SDS011;6909;52.202;9.876;2023-06-19T04:05:49;2.67;;;2.00;;
13672;SDS011;6909;52.202;9.876;2023-06-19T04:08:16;2.45;;;2.00;;
13672;SDS011;6909;52.202;9.876;2023-06-19T04:10:43;2.95;;;2.20;;
13672;SDS011;6909;52.202;9.876;2023-06-19T04:13:09;2.28;;;2.03;;
13672;SDS011;6909;52.202;9.876;2023-06-19T04:15:38;2.08;;;1.88;;
13672;SDS011;6909;52.202;9.876;2023-06-19T04:18:04;2.58;;;2.28;;
13672;SDS011;6909;52.202;9.876;2023-06-19T04:20:31;2.78;;;2.22;;
13672;SDS011;6909;52.202;9.876;2023-06-19T04:22:58;2.65;;;2.15;;
13672;SDS011;6909;52.202;9.876;2023-06-19T04:25:25;2.90;;;2.60;;
13672;SDS011;6909;52.202;9.876;2023-06-19T04:27:52;2.05;;;1.77;;
13672;SDS011;6909;52.202;9.876;2023-06-19T04:30:19;2.17;;;1.98;;
13672;SDS011;6909;52.202;9.876;2023-06-19T04:32:48;2.08;;;1.88;;
13672;SDS011;6909;52.202;9.876;2023-06-19T04:35:14;2.03;;;1.65;;
13672;SDS011;6909;52.202;9.876;2023-06-19T04:37:43;2.45;;;2.22;;
13672;SDS011;6909;52.202;9.876;2023-06-19T04:40:10;2.53;;;2.25;;
13672;SDS011;6909;52.202;9.876;2023-06-19T04:42:37;2.83;;;2.50;;
13672;SDS011;6909;52.202;9.876;2023-06-19T04:45:04;2.22;;;1.95;;
13672;SDS011;6909;52.202;9.876;2023-06-19T04:47:33;2.58;;;2.10;;
13672;SDS011;6909;52.202;9.876;2023-06-19T04:50:01;2.65;;;2.20;;
13672;SDS011;6909;52.202;9.876;2023-06-19T04:52:27;2.78;;;2.22;;
13672;SDS011;6909;52.202;9.876;2023-06-19T04:54:58;2.08;;;1.75;;
13672;SDS011;6909;52.202;9.876;2023-06-19T04:57:24;2.60;;;2.20;;
13672;SDS011;6909;52.202;9.876;2023-06-19T04:59:51;2.30;;;2.10;;
13672;SDS011;6909;52.202;9.876;2023-06-19T05:02:18;2.72;;;2.13;;
13672;SDS011;6909;52.202;9.876;2023-06-19T05:04:45;2.72;;;2.20;;
13672;SDS011;6909;52.202;9.876;2023-06-19T05:07:13;2.47;;;2.17;;
13672;SDS011;6909;52.202;9.876;2023-06-19T05:09:40;2.45;;;2.13;;
13672;SDS011;6909;52.202;9.876;2023-06-19T05:12:07;2.75;;;2.28;;
13672;SDS011;6909;52.202;9.876;2023-06-19T05:14:34;2.60;;;2.00;;
13672;SDS011;6909;52.202;9.876;2023-06-19T05:17:01;3.53;;;2.42;;
13672;SDS011;6909;52.202;9.876;2023-06-19T05:19:28;2.20;;;2.00;;
13672;SDS011;6909;52.202;9.876;2023-06-19T05:21:54;2.20;;;1.98;;
13672;SDS011;6909;52.202;9.876;2023-06-19T05:24:22;1.80;;;1.65;;
13672;SDS011;6909;52.202;9.876;2023-06-19T05:26:49;2.65;;;2.30;;
13672;SDS011;6909;52.202;9.876;2023-06-19T05:29:16;2.28;;;2.00;;
13672;SDS011;6909;52.202;9.876;2023-06-19T05:31:43;2.85;;;2.00;;
13672;SDS011;6909;52.202;9.876;2023-06-19T05:34:10;3.10;;;2.00;;
13672;SDS011;6909;52.202;9.876;2023-06-19T05:36:36;3.38;;;2.08;;
13672;SDS011;6909;52.202;9.876;2023-06-19T05:39:03;3.25;;;2.40;;
13672;SDS011;6909;52.202;9.876;2023-06-19T05:41:31;3.90;;;2.00;;
13672;SDS011;6909;52.202;9.876;2023-06-19T05:43:58;2.95;;;2.25;;
13672;SDS011;6909;52.202;9.876;2023-06-19T05:46:25;2.92;;;2.53;;
13672;SDS011;6909;52.202;9.876;2023-06-19T05:48:51;2.22;;;2.00;;
13672;SDS011;6909;52.202;9.876;2023-06-19T05:51:19;2.50;;;2.20;;
13672;SDS011;6909;52.202;9.876;2023-06-19T05:53:46;2.60;;;1.90;;
13672;SDS011;6909;52.202;9.876;2023-06-19T05:56:14;2.97;;;1.95;;
13672;SDS011;6909;52.202;9.876;2023-06-19T05:58:42;1.88;;;1.77;;
13672;SDS011;6909;52.202;9.876;2023-06-19T06:01:09;3.30;;;2.25;;
13672;SDS011;6909;52.202;9.876;2023-06-19T06:03:36;2.58;;;1.90;;
13672;SDS011;6909;52.202;9.876;2023-06-19T06:06:03;2.03;;;1.80;;
13672;SDS011;6909;52.202;9.876;2023-06-19T06:08:30;3.15;;;2.65;;
13672;SDS011;6909;52.202;9.876;2023-06-19T06:10:57;2.40;;;2.20;;
13672;SDS011;6909;52.202;9.876;2023-06-19T06:13:23;2.90;;;2.40;;
13672;SDS011;6909;52.202;9.876;2023-06-19T06:15:51;4.38;;;2.42;;
13672;SDS011;6909;52.202;9.876;2023-06-19T06:18:18;1.95;;;1.77;;
13672;SDS011;6909;52.202;9.876;2023-06-19T06:20:45;3.42;;;2.30;;
13672;SDS011;6909;52.202;9.876;2023-06-19T06:23:11;2.15;;;1.95;;
13672;SDS011;6909;52.202;9.876;2023-06-19T06:25:38;2.15;;;1.95;;
13672;SDS011;6909;52.202;9.876;2023-06-19T06:28:05;2.75;;;2.35;;
13672;SDS011;6909;52.202;9.876;2023-06-19T06:30:31;2.75;;;2.28;;
13672;SDS011;6909;52.202;9.876;2023-06-19T06:32:59;4.10;;;2.30;;
13672;SDS011;6909;52.202;9.876;2023-06-19T06:35:26;2.70;;;2.08;;
13672;SDS011;6909;52.202;9.876;2023-06-19T06:37:53;3.08;;;2.40;;
13672;SDS011;6909;52.202;9.876;2023-06-19T06:40:20;3.53;;;2.47;;
13672;SDS011;6909;52.202;9.876;2023-06-19T06:42:47;3.05;;;2.35;;
13672;SDS011;6909;52.202;9.876;2023-06-19T06:45:14;3.83;;;2.38;;
13672;SDS011;6909;52.202;9.876;2023-06-19T06:47:41;2.50;;;2.20;;
13672;SDS011;6909;52.202;9.876;2023-06-19T06:50:09;3.42;;;2.72;;
13672;SDS011;6909;52.202;9.876;2023-06-19T06:52:36;2.78;;;2.53;;
13672;SDS011;6909;52.202;9.876;2023-06-19T06:55:03;3.45;;;2.25;;
13672;SDS011;6909;52.202;9.876;2023-06-19T06:57:30;3.70;;;2.95;;
13672;SDS011;6909;52.202;9.876;2023-06-19T06:59:57;2.65;;;2.08;;
13672;SDS011;6909;52.202;9.876;2023-06-19T07:02:24;6.28;;;2.60;;
13672;SDS011;6909;52.202;9.876;2023-06-19T07:04:50;2.58;;;2.38;;
13672;SDS011;6909;52.202;9.876;2023-06-19T07:07:19;3.63;;;3.22;;
13672;SDS011;6909;52.202;9.876;2023-06-19T07:09:45;3.47;;;2.72;;
13672;SDS011;6909;52.202;9.876;2023-06-19T07:12:12;5.28;;;2.80;;
13672;SDS011;6909;52.202;9.876;2023-06-19T07:14:39;3.45;;;2.83;;
13672;SDS011;6909;52.202;9.876;2023-06-19T07:17:06;2.88;;;2.58;;
13672;SDS011;6909;52.202;9.876;2023-06-19T07:19:33;2.33;;;2.10;;
13672;SDS011;6909;52.202;9.876;2023-06-19T07:21:59;2.83;;;2.53;;
13672;SDS011;6909;52.202;9.876;2023-06-19T07:24:28;3.10;;;2.50;;
13672;SDS011;6909;52.202;9.876;2023-06-19T07:26:54;3.47;;;2.83;;
13672;SDS011;6909;52.202;9.876;2023-06-19T07:29:21;2.90;;;2.50;;
13672;SDS011;6909;52.202;9.876;2023-06-19T07:31:50;3.25;;;2.38;;
13672;SDS011;6909;52.202;9.876;2023-06-19T07:34:17;2.90;;;2.67;;
13672;SDS011;6909;52.202;9.876;2023-06-19T07:36:44;3.58;;;2.60;;
13672;SDS011;6909;52.202;9.876;2023-06-19T07:39:10;3.38;;;2.80;;
13672;SDS011;6909;52.202;9.876;2023-06-19T07:41:38;3.72;;;2.90;;
13672;SDS011;6909;52.202;9.876;2023-06-19T07:44:05;3.05;;;2.53;;
13672;SDS011;6909;52.202;9.876;2023-06-19T07:46:32;2.97;;;2.78;;
13672;SDS011;6909;52.202;9.876;2023-06-19T07:48:58;4.80;;;3.08;;
13672;SDS011;6909;52.202;9.876;2023-06-19T07:51:25;3.03;;;2.78;;
13672;SDS011;6909;52.202;9.876;2023-06-19T07:53:52;3.45;;;3.15;;
13672;SDS011;6909;52.202;9.876;2023-06-19T07:56:18;3.30;;;3.00;;
13672;SDS011;6909;52.202;9.876;2023-06-19T07:58:46;2.90;;;2.70;;
13672;SDS011;6909;52.202;9.876;2023-06-19T08:01:13;2.97;;;2.78;;
13672;SDS011;6909;52.202;9.876;2023-06-19T08:03:41;3.30;;;3.00;;
13672;SDS011;6909;52.202;9.876;2023-06-19T08:06:08;4.22;;;3.83;;
13672;SDS011;6909;52.202;9.876;2023-06-19T08:08:34;4.03;;;3.15;;
13672;SDS011;6909;52.202;9.876;2023-06-19T08:11:01;3.80;;;3.50;;
13672;SDS011;6909;52.202;9.876;2023-06-19T08:13:28;4.68;;;3.47;;
13672;SDS011;6909;52.202;9.876;2023-06-19T08:15:56;3.38;;;3.10;;
13672;SDS011;6909;52.202;9.876;2023-06-19T08:18:22;3.15;;;2.95;;
13672;SDS011;6909;52.202;9.876;2023-06-19T08:20:49;3.50;;;3.22;;
13672;SDS011;6909;52.202;9.876;2023-06-19T08:23:15;3.30;;;3.08;;
13672;SDS011;6909;52.202;9.876;2023-06-19T08:25:42;3.88;;;3.58;;
13672;SDS011;6909;52.202;9.876;2023-06-19T08:28:09;2.90;;;2.70;;
13672;SDS011;6909;52.202;9.876;2023-06-19T08:30:35;3.40;;;3.10;;
13672;SDS011;6909;52.202;9.876;2023-06-19T08:33:03;3.20;;;3.00;;
13672;SDS011;6909;52.202;9.876;2023-06-19T08:35:30;2.83;;;2.63;;
13672;SDS011;6909;52.202;9.876;2023-06-19T08:37:57;3.30;;;3.10;;
13672;SDS011;6909;52.202;9.876;2023-06-19T08:40:23;9.32;;;2.95;;
13672;SDS011;6909;52.202;9.876;2023-06-19T08:42:50;3.65;;;3.40;;
13672;SDS011;6909;52.202;9.876;2023-06-19T08:45:17;6.53;;;3.50;;
13672;SDS011;6909;52.202;9.876;2023-06-19T08:47:46;4.70;;;3.50;;
13672;SDS011;6909;52.202;9.876;2023-06-19T08:50:14;3.15;;;2.90;;
13672;SDS011;6909;52.202;9.876;2023-06-19T08:52:41;3.65;;;3.35;;
13672;SDS011;6909;52.202;9.876;2023-06-19T08:55:08;2.88;;;2.65;;
13672;SDS011;6909;52.202;9.876;2023-06-19T08:57:35;3.53;;;3.22;;
13672;SDS011;6909;52.202;9.876;2023-06-19T09:00:03;3.80;;;3.50;;
13672;SDS011;6909;52.202;9.876;2023-06-19T09:02:39;3.08;;;2.88;;
13672;SDS011;6909;52.202;9.876;2023-06-19T09:05:10;2.75;;;2.55;;
13672;SDS011;6909;52.202;9.876;2023-06-19T09:07:40;3.00;;;2.80;;
13672;SDS011;6909;52.202;9.876;2023-06-19T09:10:14;3.20;;;2.88;;
13672;SDS011;6909;52.202;9.876;2023-06-19T09:12:42;3.25;;;3.00;;
13672;SDS011;6909;52.202;9.876;2023-06-19T09:15:12;2.85;;;2.65;;
13672;SDS011;6909;52.202;9.876;2023-06-19T09:17:39;2.80;;;2.60;;
13672;SDS011;6909;52.202;9.876;2023-06-19T09:20:07;2.60;;;2.40;;
13672;SDS011;6909;52.202;9.876;2023-06-19T09:22:36;2.58;;;2.38;;
13672;SDS011;6909;52.202;9.876;2023-06-19T09:25:06;2.92;;;2.70;;
13672;SDS011;6909;52.202;9.876;2023-06-19T09:27:35;2.58;;;2.38;;
13672;SDS011;6909;52.202;9.876;2023-06-19T09:30:02;2.58;;;2.38;;
13672;SDS011;6909;52.202;9.876;2023-06-19T09:32:32;2.60;;;2.40;;
13672;SDS011;6909;52.202;9.876;2023-06-19T09:35:00;2.22;;;1.98;;
13672;SDS011;6909;52.202;9.876;2023-06-19T09:37:28;2.85;;;2.10;;
13672;SDS011;6909;52.202;9.876;2023-06-19T09:39:56;2.72;;;2.53;;
13672;SDS011;6909;52.202;9.876;2023-06-19T09:42:26;2.78;;;2.58;;
13672;SDS011;6909;52.202;9.876;2023-06-19T09:44:55;2.92;;;2.42;;
13672;SDS011;6909;52.202;9.876;2023-06-19T09:47:27;3.30;;;2.97;;
13672;SDS011;6909;52.202;9.876;2023-06-19T09:49:56;2.50;;;2.30;;
13672;SDS011;6909;52.202;9.876;2023-06-19T09:52:23;2.97;;;2.67;;
13672;SDS011;6909;52.202;9.876;2023-06-19T09:54:51;2.70;;;2.40;;
13672;SDS011;6909;52.202;9.876;2023-06-19T09:57:18;2.72;;;2.53;;
13672;SDS011;6909;52.202;9.876;2023-06-19T09:59:47;3.33;;;2.63;;
13672;SDS011;6909;52.202;9.876;2023-06-19T10:02:16;2.80;;;2.40;;
13672;SDS011;6909;52.202;9.876;2023-06-19T10:04:44;2.60;;;2.40;;
13672;SDS011;6909;52.202;9.876;2023-06-19T10:07:15;2.92;;;2.72;;
13672;SDS011;6909;52.202;9.876;2023-06-19T10:09:54;3.00;;;2.75;;
13672;SDS011;6909;52.202;9.876;2023-06-19T10:12:21;2.92;;;2.53;;
13672;SDS011;6909;52.202;9.876;2023-06-19T10:14:49;3.08;;;2.55;;
13672;SDS011;6909;52.202;9.876;2023-06-19T10:17:16;2.45;;;2.25;;
13672;SDS011;6909;52.202;9.876;2023-06-19T10:19:48;3.70;;;2.88;;
13672;SDS011;6909;52.202;9.876;2023-06-19T10:22:19;2.95;;;2.65;;
13672;SDS011;6909;52.202;9.876;2023-06-19T10:24:48;3.42;;;2.60;;
13672;SDS011;6909;52.202;9.876;2023-06-19T10:27:20;2.70;;;2.45;;
13672;SDS011;6909;52.202;9.876;2023-06-19T10:29:53;2.38;;;2.15;;
13672;SDS011;6909;52.202;9.876;2023-06-19T10:32:20;2.65;;;2.45;;
13672;SDS011;6909;52.202;9.876;2023-06-19T10:34:47;2.50;;;2.30;;
13672;SDS011;6909;52.202;9.876;2023-06-19T10:37:14;2.63;;;2.30;;
13672;SDS011;6909;52.202;9.876;2023-06-19T10:39:41;2.90;;;2.60;;
13672;SDS011;6909;52.202;9.876;2023-06-19T10:42:09;2.55;;;2.35;;
13672;SDS011;6909;52.202;9.876;2023-06-19T10:44:36;2.80;;;2.60;;
13672;SDS011;6909;52.202;9.876;2023-06-19T10:47:04;2.90;;;2.70;;
13672;SDS011;6909;52.202;9.876;2023-06-19T10:49:32;2.78;;;2.58;;
13672;SDS011;6909;52.202;9.876;2023-06-19T10:51:59;2.60;;;2.38;;
13672;SDS011;6909;52.202;9.876;2023-06-19T10:54:27;2.83;;;2.63;;
13672;SDS011;6909;52.202;9.876;2023-06-19T10:56:55;2.67;;;2.42;;
13672;SDS011;6909;52.202;9.876;2023-06-19T10:59:22;2.80;;;2.60;;
13672;SDS011;6909;52.202;9.876;2023-06-19T11:01:49;2.58;;;2.38;;
13672;SDS011;6909;52.202;9.876;2023-06-19T11:04:17;2.50;;;2.30;;
13672;SDS011;6909;52.202;9.876;2023-06-19T11:06:44;3.28;;;2.97;;
13672;SDS011;6909;52.202;9.876;2023-06-19T11:09:12;2.20;;;2.00;;
13672;SDS011;6909;52.202;9.876;2023-06-19T11:11:40;2.70;;;2.33;;
13672;SDS011;6909;52.202;9.876;2023-06-19T11:14:08;2.13;;;2.03;;
13672;SDS011;6909;52.202;9.876;2023-06-19T11:16:37;2.53;;;2.30;;
13672;SDS011;6909;52.202;9.876;2023-06-19T11:19:06;2.13;;;1.60;;
13672;SDS011;6909;52.202;9.876;2023-06-19T11:21:36;2.15;;;1.95;;
13672;SDS011;6909;52.202;9.876;2023-06-19T11:24:04;1.90;;;1.80;;
13672;SDS011;6909;52.202;9.876;2023-06-19T11:26:34;2.33;;;2.13;;
13672;SDS011;6909;52.202;9.876;2023-06-19T11:29:01;2.00;;;1.90;;
13672;SDS011;6909;52.202;9.876;2023-06-19T11:31:38;1.67;;;1.58;;
13672;SDS011;6909;52.202;9.876;2023-06-19T11:34:05;1.98;;;1.85;;
13672;SDS011;6909;52.202;9.876;2023-06-19T11:36:32;1.45;;;1.35;;
13672;SDS011;6909;52.202;9.876;2023-06-19T11:39:04;1.60;;;1.50;;
13672;SDS011;6909;52.202;9.876;2023-06-19T11:41:31;1.50;;;1.40;;
13672;SDS011;6909;52.202;9.876;2023-06-19T11:43:58;2.20;;;2.00;;
13672;SDS011;6909;52.202;9.876;2023-06-19T11:46:28;2.30;;;2.20;;
13672;SDS011;6909;52.202;9.876;2023-06-19T11:48:55;2.40;;;2.13;;
13672;SDS011;6909;52.202;9.876;2023-06-19T11:51:32;2.63;;;2.42;;
13672;SDS011;6909;52.202;9.876;2023-06-19T11:53:59;2.22;;;2.03;;
13672;SDS011;6909;52.202;9.876;2023-06-19T11:56:27;4.22;;;2.63;;
13672;SDS011;6909;52.202;9.876;2023-06-19T11:58:54;2.00;;;1.90;;
13672;SDS011;6909;52.202;9.876;2023-06-19T12:01:20;2.38;;;2.17;;
13672;SDS011;6909;52.202;9.876;2023-06-19T12:03:47;2.08;;;1.98;;
13672;SDS011;6909;52.202;9.876;2023-06-19T12:06:14;2.35;;;2.15;;
13672;SDS011;6909;52.202;9.876;2023-06-19T12:08:42;2.05;;;1.60;;
13672;SDS011;6909;52.202;9.876;2023-06-19T12:11:09;2.03;;;1.92;;
13672;SDS011;6909;52.202;9.876;2023-06-19T12:13:39;1.85;;;1.75;;
13672;SDS011;6909;52.202;9.876;2023-06-19T12:16:06;1.50;;;1.40;;
13672;SDS011;6909;52.202;9.876;2023-06-19T12:18:32;2.05;;;1.67;;
13672;SDS011;6909;52.202;9.876;2023-06-19T12:20:59;1.70;;;1.60;;
13672;SDS011;6909;52.202;9.876;2023-06-19T12:23:26;1.52;;;1.42;;
13672;SDS011;6909;52.202;9.876;2023-06-19T12:25:53;1.88;;;1.77;;
13672;SDS011;6909;52.202;9.876;2023-06-19T12:28:19;1.55;;;1.40;;
13672;SDS011;6909;52.202;9.876;2023-06-19T12:30:47;1.50;;;1.40;;
13672;SDS011;6909;52.202;9.876;2023-06-19T12:33:16;1.35;;;1.20;;
13672;SDS011;6909;52.202;9.876;2023-06-19T12:35:43;3.53;;;1.50;;
13672;SDS011;6909;52.202;9.876;2023-06-19T12:38:11;1.30;;;1.20;;
13672;SDS011;6909;52.202;9.876;2023-06-19T12:40:38;1.42;;;1.33;;
13672;SDS011;6909;52.202;9.876;2023-06-19T12:43:04;1.25;;;1.15;;
13672;SDS011;6909;52.202;9.876;2023-06-19T12:45:31;1.52;;;1.42;;
13672;SDS011;6909;52.202;9.876;2023-06-19T12:47:59;1.80;;;1.38;;
13672;SDS011;6909;52.202;9.876;2023-06-19T12:50:26;1.60;;;1.50;;
13672;SDS011;6909;52.202;9.876;2023-06-19T12:52:53;1.55;;;1.45;;
13672;SDS011;6909;52.202;9.876;2023-06-19T12:55:19;1.90;;;1.80;;
13672;SDS011;6909;52.202;9.876;2023-06-19T12:57:46;1.38;;;1.27;;
13672;SDS011;6909;52.202;9.876;2023-06-19T13:00:13;1.33;;;1.23;;
13672;SDS011;6909;52.202;9.876;2023-06-19T13:02:40;1.50;;;1.40;;
13672;SDS011;6909;52.202;9.876;2023-06-19T13:05:09;1.35;;;1.25;;
13672;SDS011;6909;52.202;9.876;2023-06-19T13:07:36;1.70;;;1.60;;
13672;SDS011;6909;52.202;9.876;2023-06-19T13:10:03;1.42;;;1.33;;
13672;SDS011;6909;52.202;9.876;2023-06-19T13:12:31;1.52;;;1.42;;
13672;SDS011;6909;52.202;9.876;2023-06-19T13:14:57;1.77;;;1.67;;
13672;SDS011;6909;52.202;9.876;2023-06-19T13:17:24;1.95;;;1.85;;
13672;SDS011;6909;52.202;9.876;2023-06-19T13:19:51;1.70;;;1.60;;
13672;SDS011;6909;52.202;9.876;2023-06-19T13:22:19;1.65;;;1.55;;
13672;SDS011;6909;52.202;9.876;2023-06-19T13:24:45;1.63;;;1.52;;
13672;SDS011;6909;52.202;9.876;2023-06-19T13:27:12;1.70;;;1.60;;
13672;SDS011;6909;52.202;9.876;2023-06-19T13:29:39;2.00;;;1.80;;
13672;SDS011;6909;52.202;9.876;2023-06-19T13:32:06;1.60;;;1.50;;
13672;SDS011;6909;52.202;9.876;2023-06-19T13:34:32;1.92;;;1.83;;
13672;SDS011;6909;52.202;9.876;2023-06-19T13:36:59;1.63;;;1.52;;
13672;SDS011;6909;52.202;9.876;2023-06-19T13:39:27;2.03;;;1.83;;
13672;SDS011;6909;52.202;9.876;2023-06-19T13:41:54;1.95;;;1.85;;
13672;SDS011;6909;52.202;9.876;2023-06-19T13:44:20;1.88;;;1.77;;
13672;SDS011;6909;52.202;9.876;2023-06-19T13:46:47;1.90;;;1.80;;
13672;SDS011;6909;52.202;9.876;2023-06-19T13:49:14;1.77;;;1.67;;
13672;SDS011;6909;52.202;9.876;2023-06-19T13:51:40;1.98;;;1.88;;
13672;SDS011;6909;52.202;9.876;2023-06-19T13:54:09;2.08;;;1.98;;
13672;SDS011;6909;52.202;9.876;2023-06-19T13:56:39;2.50;;;2.38;;
13672;SDS011;6909;52.202;9.876;2023-06-19T13:59:07;2.05;;;1.95;;
13672;SDS011;6909;52.202;9.876;2023-06-19T14:01:34;1.90;;;1.80;;
13672;SDS011;6909;52.202;9.876;2023-06-19T14:04:00;1.92;;;1.83;;
13672;SDS011;6909;52.202;9.876;2023-06-19T14:06:27;2.28;;;2.08;;
13672;SDS011;6909;52.202;9.876;2023-06-19T14:08:55;2.00;;;1.90;;
13672;SDS011;6909;52.202;9.876;2023-06-19T14:11:21;1.92;;;1.83;;
13672;SDS011;6909;52.202;9.876;2023-06-19T14:13:49;2.33;;;2.08;;
13672;SDS011;6909;52.202;9.876;2023-06-19T14:16:16;1.88;;;1.77;;
13672;SDS011;6909;52.202;9.876;2023-06-19T14:18:43;1.80;;;1.70;;
13672;SDS011;6909;52.202;9.876;2023-06-19T14:21:09;2.00;;;1.80;;
13672;SDS011;6909;52.202;9.876;2023-06-19T14:23:36;2.70;;;1.85;;
13672;SDS011;6909;52.202;9.876;2023-06-19T14:26:07;1.85;;;1.75;;
13672;SDS011;6909;52.202;9.876;2023-06-19T14:28:35;2.03;;;1.92;;
13672;SDS011;6909;52.202;9.876;2023-06-19T14:31:03;2.63;;;2.10;;
13672;SDS011;6909;52.202;9.876;2023-06-19T14:33:30;1.92;;;1.83;;
13672;SDS011;6909;52.202;9.876;2023-06-19T14:35:58;3.15;;;2.40;;
13672;SDS011;6909;52.202;9.876;2023-06-19T14:38:25;2.78;;;2.30;;
13672;SDS011;6909;52.202;9.876;2023-06-19T14:40:56;2.55;;;2.13;;
13672;SDS011;6909;52.202;9.876;2023-06-19T14:43:23;2.38;;;2.17;;
13672;SDS011;6909;52.202;9.876;2023-06-19T14:45:49;2.17;;;2.03;;
13672;SDS011;6909;52.202;9.876;2023-06-19T14:48:17;1.98;;;1.88;;
13672;SDS011;6909;52.202;9.876;2023-06-19T14:50:44;1.95;;;1.85;;
13672;SDS011;6909;52.202;9.876;2023-06-19T14:53:11;2.20;;;2.00;;
13672;SDS011;6909;52.202;9.876;2023-06-19T14:55:37;2.30;;;2.10;;
13672;SDS011;6909;52.202;9.876;2023-06-19T14:58:08;2.10;;;2.00;;
13672;SDS011;6909;52.202;9.876;2023-06-19T15:00:35;2.42;;;2.17;;
13672;SDS011;6909;52.202;9.876;2023-06-19T15:03:03;2.13;;;1.92;;